sensor_id;sensor_type;location;lat;lon;timestamp;P1;durP1;ratioP1;P2;durP2;ratioP2
62915;SDS011;49010;51.230;-2.306;2022-11-15T00:03:19;9.90;;;1.77;;
62915;SDS011;49010;51.230;-2.306;2022-11-15T00:07:03;7.18;;;2.50;;
62915;SDS011;49010;51.230;-2.306;2022-11-15T00:10:58;9.93;;;2.05;;
62915;SDS011;49010;51.230;-2.306;2022-11-15T00:14:41;9.70;;;1.75;;
62915;SDS011;49010;51.230;-2.306;2022-11-15T00:18:23;12.30;;;2.22;;
62915;SDS011;49010;51.230;-2.306;2022-11-15T00:22:05;9.25;;;1.92;;
62915;SDS011;49010;51.230;-2.306;2022-11-15T00:25:54;11.63;;;1.98;;
62915;SDS011;49010;51.230;-2.306;2022-11-15T00:29:37;6.45;;;1.35;;
62915;SDS011;49010;51.230;-2.306;2022-11-15T00:33:19;9.80;;;2.03;;
62915;SDS011;49010;51.230;-2.306;2022-11-15T00:37:01;4.95;;;1.48;;
62915;SDS011;49010;51.230;-2.306;2022-11-15T00:40:43;9.85;;;2.03;;
62915;SDS011;49010;51.230;-2.306;2022-11-15T00:44:25;7.97;;;1.73;;
62915;SDS011;49010;51.230;-2.306;2022-11-15T00:48:07;13.13;;;1.98;;
62915;SDS011;49010;51.230;-2.306;2022-11-15T00:51:49;8.60;;;1.70;;
62915;SDS011;49010;51.230;-2.306;2022-11-15T00:55:31;11.25;;;1.80;;
62915;SDS011;49010;51.230;-2.306;2022-11-15T00:59:13;8.90;;;1.33;;
62915;SDS011;49010;51.230;-2.306;2022-11-15T01:02:55;6.20;;;1.23;;
62915;SDS011;49010;51.230;-2.306;2022-11-15T01:06:37;10.77;;;1.58;;
62915;SDS011;49010;51.230;-2.306;2022-11-15T01:10:18;8.68;;;1.98;;
62915;SDS011;49010;51.230;-2.306;2022-11-15T01:14:01;5.60;;;1.10;;
62915;SDS011;49010;51.230;-2.306;2022-11-15T01:17:43;10.10;;;1.50;;
62915;SDS011;49010;51.230;-2.306;2022-11-15T01:21:25;9.90;;;1.73;;
62915;SDS011;49010;51.230;-2.306;2022-11-15T01:25:07;9.55;;;1.70;;
62915;SDS011;49010;51.230;-2.306;2022-11-15T01:28:49;7.85;;;1.63;;
62915;SDS011;49010;51.230;-2.306;2022-11-15T01:32:32;9.75;;;1.85;;
62915;SDS011;49010;51.230;-2.306;2022-11-15T01:36:15;13.82;;;2.67;;
62915;SDS011;49010;51.230;-2.306;2022-11-15T01:40:03;8.23;;;1.30;;
62915;SDS011;49010;51.230;-2.306;2022-11-15T01:43:46;6.38;;;1.70;;
62915;SDS011;49010;51.230;-2.306;2022-11-15T01:47:35;9.25;;;1.40;;
62915;SDS011;49010;51.230;-2.306;2022-11-15T01:51:21;9.85;;;2.03;;
62915;SDS011;49010;51.230;-2.306;2022-11-15T01:55:20;8.15;;;2.03;;
62915;SDS011;49010;51.230;-2.306;2022-11-15T01:59:06;15.40;;;2.13;;
62915;SDS011;49010;51.230;-2.306;2022-11-15T02:02:49;6.88;;;1.80;;
62915;SDS011;49010;51.230;-2.306;2022-11-15T02:06:32;12.15;;;2.17;;
62915;SDS011;49010;51.230;-2.306;2022-11-15T02:10:19;8.10;;;1.88;;
62915;SDS011;49010;51.230;-2.306;2022-11-15T02:14:02;9.30;;;1.45;;
62915;SDS011;49010;51.230;-2.306;2022-11-15T02:21:49;7.47;;;1.92;;
62915;SDS011;49010;51.230;-2.306;2022-11-15T02:25:40;14.43;;;2.42;;
62915;SDS011;49010;51.230;-2.306;2022-11-15T02:45:30;6.03;;;1.27;;
62915;SDS011;49010;51.230;-2.306;2022-11-15T02:49:18;6.80;;;1.30;;
62915;SDS011;49010;51.230;-2.306;2022-11-15T02:53:00;6.85;;;1.40;;
62915;SDS011;49010;51.230;-2.306;2022-11-15T02:56:43;6.05;;;1.33;;
62915;SDS011;49010;51.230;-2.306;2022-11-15T03:00:26;4.30;;;0.95;;
62915;SDS011;49010;51.230;-2.306;2022-11-15T03:12:24;1.73;;;0.80;;
62915;SDS011;49010;51.230;-2.306;2022-11-15T03:16:18;4.78;;;1.00;;
62915;SDS011;49010;51.230;-2.306;2022-11-15T03:20:03;1.27;;;0.40;;
62915;SDS011;49010;51.230;-2.306;2022-11-15T03:23:47;6.43;;;1.17;;
62915;SDS011;49010;51.230;-2.306;2022-11-15T03:27:33;2.95;;;0.50;;
62915;SDS011;49010;51.230;-2.306;2022-11-15T03:31:23;3.00;;;0.60;;
62915;SDS011;49010;51.230;-2.306;2022-11-15T03:35:32;3.42;;;0.50;;
62915;SDS011;49010;51.230;-2.306;2022-11-15T03:39:18;1.25;;;0.30;;
62915;SDS011;49010;51.230;-2.306;2022-11-15T03:43:04;1.02;;;0.38;;
62915;SDS011;49010;51.230;-2.306;2022-11-15T03:51:14;1.52;;;0.40;;
62915;SDS011;49010;51.230;-2.306;2022-11-15T03:54:56;0.98;;;0.30;;
62915;SDS011;49010;51.230;-2.306;2022-11-15T03:58:40;1.83;;;0.40;;
62915;SDS011;49010;51.230;-2.306;2022-11-15T04:02:22;2.67;;;0.50;;
62915;SDS011;49010;51.230;-2.306;2022-11-15T04:06:04;0.40;;;0.20;;
62915;SDS011;49010;51.230;-2.306;2022-11-15T04:09:46;0.55;;;0.20;;
62915;SDS011;49010;51.230;-2.306;2022-11-15T04:13:43;1.52;;;0.40;;
62915;SDS011;49010;51.230;-2.306;2022-11-15T04:17:25;0.55;;;0.22;;
62915;SDS011;49010;51.230;-2.306;2022-11-15T04:21:08;2.05;;;0.30;;
62915;SDS011;49010;51.230;-2.306;2022-11-15T04:25:08;1.58;;;0.20;;
62915;SDS011;49010;51.230;-2.306;2022-11-15T04:28:50;3.35;;;0.32;;
62915;SDS011;49010;51.230;-2.306;2022-11-15T04:32:51;3.20;;;0.38;;
62915;SDS011;49010;51.230;-2.306;2022-11-15T04:36:33;1.60;;;0.40;;
62915;SDS011;49010;51.230;-2.306;2022-11-15T04:40:33;1.70;;;0.30;;
62915;SDS011;49010;51.230;-2.306;2022-11-15T04:44:16;1.65;;;0.40;;
62915;SDS011;49010;51.230;-2.306;2022-11-15T04:47:58;1.88;;;0.40;;
62915;SDS011;49010;51.230;-2.306;2022-11-15T04:51:40;3.80;;;1.38;;
62915;SDS011;49010;51.230;-2.306;2022-11-15T04:55:22;2.08;;;0.50;;
62915;SDS011;49010;51.230;-2.306;2022-11-15T04:59:04;4.53;;;0.90;;
62915;SDS011;49010;51.230;-2.306;2022-11-15T05:02:46;5.15;;;0.68;;
62915;SDS011;49010;51.230;-2.306;2022-11-15T05:06:49;4.38;;;0.93;;
62915;SDS011;49010;51.230;-2.306;2022-11-15T05:10:32;2.13;;;0.50;;
62915;SDS011;49010;51.230;-2.306;2022-11-15T05:14:14;5.32;;;0.90;;
62915;SDS011;49010;51.230;-2.306;2022-11-15T05:17:57;3.33;;;0.85;;
62915;SDS011;49010;51.230;-2.306;2022-11-15T05:21:40;6.25;;;0.90;;
62915;SDS011;49010;51.230;-2.306;2022-11-15T05:25:22;8.05;;;1.08;;
62915;SDS011;49010;51.230;-2.306;2022-11-15T05:29:04;1.60;;;0.55;;
62915;SDS011;49010;51.230;-2.306;2022-11-15T05:32:46;5.30;;;1.10;;
62915;SDS011;49010;51.230;-2.306;2022-11-15T05:36:31;2.97;;;1.27;;
62915;SDS011;49010;51.230;-2.306;2022-11-15T05:40:23;13.18;;;1.52;;
62915;SDS011;49010;51.230;-2.306;2022-11-15T05:44:05;5.07;;;0.93;;
62915;SDS011;49010;51.230;-2.306;2022-11-15T05:47:50;4.10;;;0.95;;
62915;SDS011;49010;51.230;-2.306;2022-11-15T05:51:34;3.33;;;1.00;;
62915;SDS011;49010;51.230;-2.306;2022-11-15T05:55:16;4.00;;;0.80;;
62915;SDS011;49010;51.230;-2.306;2022-11-15T05:58:58;3.05;;;1.38;;
62915;SDS011;49010;51.230;-2.306;2022-11-15T06:02:40;4.28;;;1.45;;
62915;SDS011;49010;51.230;-2.306;2022-11-15T06:06:22;3.85;;;0.75;;
62915;SDS011;49010;51.230;-2.306;2022-11-15T06:10:04;4.13;;;1.05;;
62915;SDS011;49010;51.230;-2.306;2022-11-15T06:13:46;7.07;;;1.08;;
62915;SDS011;49010;51.230;-2.306;2022-11-15T06:17:28;5.53;;;1.13;;
62915;SDS011;49010;51.230;-2.306;2022-11-15T06:21:10;4.70;;;1.52;;
62915;SDS011;49010;51.230;-2.306;2022-11-15T06:24:52;8.65;;;1.75;;
62915;SDS011;49010;51.230;-2.306;2022-11-15T06:28:34;4.82;;;1.42;;
62915;SDS011;49010;51.230;-2.306;2022-11-15T06:32:16;4.05;;;1.05;;
62915;SDS011;49010;51.230;-2.306;2022-11-15T06:36:02;4.65;;;0.93;;
62915;SDS011;49010;51.230;-2.306;2022-11-15T06:39:44;9.35;;;1.23;;
62915;SDS011;49010;51.230;-2.306;2022-11-15T06:43:26;5.85;;;1.42;;
62915;SDS011;49010;51.230;-2.306;2022-11-15T06:47:08;7.57;;;1.13;;
62915;SDS011;49010;51.230;-2.306;2022-11-15T06:50:54;7.85;;;1.55;;
62915;SDS011;49010;51.230;-2.306;2022-11-15T06:54:37;4.47;;;1.05;;
62915;SDS011;49010;51.230;-2.306;2022-11-15T06:58:20;4.25;;;0.70;;
62915;SDS011;49010;51.230;-2.306;2022-11-15T07:02:02;5.68;;;1.00;;
62915;SDS011;49010;51.230;-2.306;2022-11-15T07:05:51;6.18;;;1.35;;
62915;SDS011;49010;51.230;-2.306;2022-11-15T07:09:36;7.18;;;1.00;;
62915;SDS011;49010;51.230;-2.306;2022-11-15T07:13:18;6.50;;;1.10;;
62915;SDS011;49010;51.230;-2.306;2022-11-15T07:17:02;4.10;;;0.70;;
62915;SDS011;49010;51.230;-2.306;2022-11-15T07:20:46;4.25;;;1.08;;
62915;SDS011;49010;51.230;-2.306;2022-11-15T07:24:28;4.78;;;1.17;;
62915;SDS011;49010;51.230;-2.306;2022-11-15T07:28:10;6.43;;;0.82;;
62915;SDS011;49010;51.230;-2.306;2022-11-15T07:31:52;4.28;;;0.60;;
62915;SDS011;49010;51.230;-2.306;2022-11-15T07:35:34;5.30;;;0.95;;
62915;SDS011;49010;51.230;-2.306;2022-11-15T07:39:17;2.17;;;0.80;;
62915;SDS011;49010;51.230;-2.306;2022-11-15T07:43:03;5.43;;;0.60;;
62915;SDS011;49010;51.230;-2.306;2022-11-15T07:46:47;3.83;;;0.90;;
62915;SDS011;49010;51.230;-2.306;2022-11-15T07:50:29;6.35;;;1.05;;
62915;SDS011;49010;51.230;-2.306;2022-11-15T07:54:12;5.88;;;1.42;;
62915;SDS011;49010;51.230;-2.306;2022-11-15T07:57:59;5.90;;;1.00;;
62915;SDS011;49010;51.230;-2.306;2022-11-15T08:01:42;3.90;;;0.73;;
62915;SDS011;49010;51.230;-2.306;2022-11-15T08:05:24;3.33;;;0.77;;
62915;SDS011;49010;51.230;-2.306;2022-11-15T08:09:06;5.13;;;0.52;;
62915;SDS011;49010;51.230;-2.306;2022-11-15T08:12:48;8.52;;;0.60;;
62915;SDS011;49010;51.230;-2.306;2022-11-15T08:16:37;4.45;;;0.50;;
62915;SDS011;49010;51.230;-2.306;2022-11-15T08:20:19;18.80;;;5.55;;
62915;SDS011;49010;51.230;-2.306;2022-11-15T08:24:01;11.82;;;3.67;;
62915;SDS011;49010;51.230;-2.306;2022-11-15T08:27:43;4.30;;;1.13;;
62915;SDS011;49010;51.230;-2.306;2022-11-15T08:31:25;6.95;;;2.08;;
62915;SDS011;49010;51.230;-2.306;2022-11-15T08:35:07;3.90;;;0.85;;
62915;SDS011;49010;51.230;-2.306;2022-11-15T08:38:49;5.25;;;1.10;;
62915;SDS011;49010;51.230;-2.306;2022-11-15T08:42:31;4.30;;;1.00;;
62915;SDS011;49010;51.230;-2.306;2022-11-15T08:46:13;6.00;;;1.25;;
62915;SDS011;49010;51.230;-2.306;2022-11-15T08:49:55;8.45;;;1.13;;
62915;SDS011;49010;51.230;-2.306;2022-11-15T08:53:37;5.47;;;0.80;;
62915;SDS011;49010;51.230;-2.306;2022-11-15T08:57:19;2.88;;;1.15;;
62915;SDS011;49010;51.230;-2.306;2022-11-15T09:01:01;7.60;;;1.00;;
62915;SDS011;49010;51.230;-2.306;2022-11-15T09:04:47;2.28;;;0.60;;
62915;SDS011;49010;51.230;-2.306;2022-11-15T09:08:30;3.22;;;0.68;;
62915;SDS011;49010;51.230;-2.306;2022-11-15T09:12:29;5.40;;;0.80;;
62915;SDS011;49010;51.230;-2.306;2022-11-15T09:16:11;2.97;;;0.40;;
62915;SDS011;49010;51.230;-2.306;2022-11-15T09:19:54;3.63;;;0.73;;
62915;SDS011;49010;51.230;-2.306;2022-11-15T09:23:36;10.95;;;5.43;;
62915;SDS011;49010;51.230;-2.306;2022-11-15T09:27:18;14.30;;;3.50;;
62915;SDS011;49010;51.230;-2.306;2022-11-15T09:31:01;9.65;;;4.75;;
62915;SDS011;49010;51.230;-2.306;2022-11-15T09:34:45;9.20;;;3.10;;
62915;SDS011;49010;51.230;-2.306;2022-11-15T09:38:27;3.83;;;1.20;;
62915;SDS011;49010;51.230;-2.306;2022-11-15T09:49:57;8.85;;;5.30;;
62915;SDS011;49010;51.230;-2.306;2022-11-15T09:53:43;3.88;;;0.95;;
62915;SDS011;49010;51.230;-2.306;2022-11-15T09:57:59;3.58;;;0.75;;
62915;SDS011;49010;51.230;-2.306;2022-11-15T10:02:00;2.20;;;0.70;;
62915;SDS011;49010;51.230;-2.306;2022-11-15T10:06:04;3.72;;;0.80;;
62915;SDS011;49010;51.230;-2.306;2022-11-15T10:13:35;4.60;;;0.90;;
62915;SDS011;49010;51.230;-2.306;2022-11-15T10:25:41;6.30;;;1.40;;
62915;SDS011;49010;51.230;-2.306;2022-11-15T10:29:24;8.88;;;1.48;;
62915;SDS011;49010;51.230;-2.306;2022-11-15T10:36:59;11.80;;;1.85;;
62915;SDS011;49010;51.230;-2.306;2022-11-15T10:40:43;12.40;;;2.55;;
62915;SDS011;49010;51.230;-2.306;2022-11-15T10:44:27;11.38;;;2.95;;
62915;SDS011;49010;51.230;-2.306;2022-11-15T10:56:00;12.43;;;2.67;;
62915;SDS011;49010;51.230;-2.306;2022-11-15T10:59:47;10.75;;;2.83;;
62915;SDS011;49010;51.230;-2.306;2022-11-15T11:03:36;10.50;;;1.95;;
62915;SDS011;49010;51.230;-2.306;2022-11-15T11:07:21;10.20;;;1.38;;
62915;SDS011;49010;51.230;-2.306;2022-11-15T11:11:05;11.77;;;2.40;;
62915;SDS011;49010;51.230;-2.306;2022-11-15T11:14:48;10.82;;;1.73;;
62915;SDS011;49010;51.230;-2.306;2022-11-15T11:18:34;7.43;;;1.38;;
62915;SDS011;49010;51.230;-2.306;2022-11-15T11:26:42;7.50;;;1.60;;
62915;SDS011;49010;51.230;-2.306;2022-11-15T11:30:55;11.32;;;2.00;;
62915;SDS011;49010;51.230;-2.306;2022-11-15T11:42:47;17.30;;;2.58;;
62915;SDS011;49010;51.230;-2.306;2022-11-15T11:50:48;9.20;;;2.30;;
62915;SDS011;49010;51.230;-2.306;2022-11-15T11:54:43;8.80;;;2.50;;
62915;SDS011;49010;51.230;-2.306;2022-11-15T11:58:34;16.60;;;3.13;;
62915;SDS011;49010;51.230;-2.306;2022-11-15T12:10:11;20.88;;;4.03;;
62915;SDS011;49010;51.230;-2.306;2022-11-15T12:14:03;17.80;;;4.45;;
62915;SDS011;49010;51.230;-2.306;2022-11-15T12:17:54;16.20;;;4.00;;
62915;SDS011;49010;51.230;-2.306;2022-11-15T12:25:35;12.13;;;3.53;;
62915;SDS011;49010;51.230;-2.306;2022-11-15T12:29:31;19.15;;;4.30;;
62915;SDS011;49010;51.230;-2.306;2022-11-15T12:33:31;10.95;;;4.07;;
62915;SDS011;49010;51.230;-2.306;2022-11-15T12:38:01;12.15;;;3.80;;
62915;SDS011;49010;51.230;-2.306;2022-11-15T12:41:31;13.35;;;3.28;;
62915;SDS011;49010;51.230;-2.306;2022-11-15T13:00:56;12.35;;;3.50;;
62915;SDS011;49010;51.230;-2.306;2022-11-15T13:04:38;12.68;;;3.63;;
62915;SDS011;49010;51.230;-2.306;2022-11-15T13:09:03;12.02;;;3.25;;
62915;SDS011;49010;51.230;-2.306;2022-11-15T13:16:10;14.80;;;3.50;;
62915;SDS011;49010;51.230;-2.306;2022-11-15T13:20:14;16.60;;;3.70;;
62915;SDS011;49010;51.230;-2.306;2022-11-15T13:24:00;16.92;;;3.63;;
62915;SDS011;49010;51.230;-2.306;2022-11-15T13:27:42;13.05;;;2.45;;
62915;SDS011;49010;51.230;-2.306;2022-11-15T13:31:25;15.88;;;3.03;;
62915;SDS011;49010;51.230;-2.306;2022-11-15T13:35:22;6.00;;;2.50;;
62915;SDS011;49010;51.230;-2.306;2022-11-15T13:39:12;13.68;;;2.97;;
62915;SDS011;49010;51.230;-2.306;2022-11-15T13:47:15;15.02;;;3.47;;
62915;SDS011;49010;51.230;-2.306;2022-11-15T13:51:00;11.93;;;3.13;;
62915;SDS011;49010;51.230;-2.306;2022-11-15T13:58:44;17.92;;;6.95;;
62915;SDS011;49010;51.230;-2.306;2022-11-15T14:02:30;7.65;;;2.33;;
62915;SDS011;49010;51.230;-2.306;2022-11-15T14:06:17;3.95;;;1.40;;
62915;SDS011;49010;51.230;-2.306;2022-11-15T14:17:48;2.28;;;1.23;;
62915;SDS011;49010;51.230;-2.306;2022-11-15T14:21:31;3.00;;;1.10;;
62915;SDS011;49010;51.230;-2.306;2022-11-15T14:33:17;3.67;;;1.52;;
62915;SDS011;49010;51.230;-2.306;2022-11-15T14:37:28;6.30;;;1.30;;
62915;SDS011;49010;51.230;-2.306;2022-11-15T14:41:25;4.07;;;1.38;;
62915;SDS011;49010;51.230;-2.306;2022-11-15T14:45:15;2.55;;;0.90;;
62915;SDS011;49010;51.230;-2.306;2022-11-15T14:49:01;4.18;;;1.15;;
62915;SDS011;49010;51.230;-2.306;2022-11-15T14:52:43;6.15;;;1.90;;
62915;SDS011;49010;51.230;-2.306;2022-11-15T14:56:25;2.00;;;1.15;;
62915;SDS011;49010;51.230;-2.306;2022-11-15T15:00:07;8.07;;;2.10;;
62915;SDS011;49010;51.230;-2.306;2022-11-15T15:03:51;7.40;;;1.52;;
62915;SDS011;49010;51.230;-2.306;2022-11-15T15:07:36;5.43;;;1.60;;
62915;SDS011;49010;51.230;-2.306;2022-11-15T15:11:25;5.65;;;2.60;;
62915;SDS011;49010;51.230;-2.306;2022-11-15T15:15:13;7.15;;;2.15;;
62915;SDS011;49010;51.230;-2.306;2022-11-15T15:18:57;10.98;;;3.70;;
62915;SDS011;49010;51.230;-2.306;2022-11-15T15:22:38;7.75;;;3.17;;
62915;SDS011;49010;51.230;-2.306;2022-11-15T15:26:21;12.02;;;6.07;;
62915;SDS011;49010;51.230;-2.306;2022-11-15T15:30:04;9.25;;;2.25;;
62915;SDS011;49010;51.230;-2.306;2022-11-15T15:33:46;8.63;;;2.17;;
62915;SDS011;49010;51.230;-2.306;2022-11-15T15:37:28;9.10;;;1.90;;
62915;SDS011;49010;51.230;-2.306;2022-11-15T15:41:11;7.32;;;1.50;;
62915;SDS011;49010;51.230;-2.306;2022-11-15T15:44:54;4.63;;;1.80;;
62915;SDS011;49010;51.230;-2.306;2022-11-15T15:48:36;6.57;;;1.35;;
62915;SDS011;49010;51.230;-2.306;2022-11-15T15:52:20;6.20;;;1.25;;
62915;SDS011;49010;51.230;-2.306;2022-11-15T15:56:02;4.72;;;1.20;;
62915;SDS011;49010;51.230;-2.306;2022-11-15T15:59:44;2.55;;;1.15;;
62915;SDS011;49010;51.230;-2.306;2022-11-15T16:03:26;3.95;;;1.10;;
62915;SDS011;49010;51.230;-2.306;2022-11-15T16:07:13;6.13;;;1.20;;
62915;SDS011;49010;51.230;-2.306;2022-11-15T16:11:02;3.28;;;1.00;;
62915;SDS011;49010;51.230;-2.306;2022-11-15T16:14:47;3.22;;;0.98;;
62915;SDS011;49010;51.230;-2.306;2022-11-15T16:18:29;5.80;;;1.23;;
62915;SDS011;49010;51.230;-2.306;2022-11-15T16:22:11;6.03;;;1.20;;
62915;SDS011;49010;51.230;-2.306;2022-11-15T16:25:54;4.82;;;1.63;;
62915;SDS011;49010;51.230;-2.306;2022-11-15T16:29:37;7.70;;;1.27;;
62915;SDS011;49010;51.230;-2.306;2022-11-15T16:33:18;4.82;;;1.25;;
62915;SDS011;49010;51.230;-2.306;2022-11-15T16:37:01;4.20;;;1.08;;
62915;SDS011;49010;51.230;-2.306;2022-11-15T16:40:43;5.50;;;1.00;;
62915;SDS011;49010;51.230;-2.306;2022-11-15T16:44:25;6.32;;;1.63;;
62915;SDS011;49010;51.230;-2.306;2022-11-15T16:48:18;7.25;;;1.60;;
62915;SDS011;49010;51.230;-2.306;2022-11-15T16:52:00;8.93;;;1.50;;
62915;SDS011;49010;51.230;-2.306;2022-11-15T16:55:42;5.63;;;1.35;;
62915;SDS011;49010;51.230;-2.306;2022-11-15T16:59:24;10.23;;;1.90;;
62915;SDS011;49010;51.230;-2.306;2022-11-15T17:03:06;7.57;;;1.52;;
62915;SDS011;49010;51.230;-2.306;2022-11-15T17:06:48;6.63;;;2.08;;
62915;SDS011;49010;51.230;-2.306;2022-11-15T17:10:30;5.75;;;1.25;;
62915;SDS011;49010;51.230;-2.306;2022-11-15T17:14:12;7.07;;;1.60;;
62915;SDS011;49010;51.230;-2.306;2022-11-15T17:17:55;8.10;;;2.90;;
62915;SDS011;49010;51.230;-2.306;2022-11-15T17:21:37;12.02;;;2.60;;
62915;SDS011;49010;51.230;-2.306;2022-11-15T17:25:19;8.40;;;2.20;;
62915;SDS011;49010;51.230;-2.306;2022-11-15T17:29:01;8.57;;;2.50;;
62915;SDS011;49010;51.230;-2.306;2022-11-15T17:32:44;11.05;;;2.45;;
62915;SDS011;49010;51.230;-2.306;2022-11-15T17:36:28;5.13;;;2.00;;
62915;SDS011;49010;51.230;-2.306;2022-11-15T17:40:10;6.80;;;2.00;;
62915;SDS011;49010;51.230;-2.306;2022-11-15T17:43:52;8.32;;;2.00;;
62915;SDS011;49010;51.230;-2.306;2022-11-15T17:47:38;5.93;;;1.52;;
62915;SDS011;49010;51.230;-2.306;2022-11-15T17:51:20;6.93;;;1.63;;
62915;SDS011;49010;51.230;-2.306;2022-11-15T17:55:04;6.60;;;1.98;;
62915;SDS011;49010;51.230;-2.306;2022-11-15T18:02:35;8.50;;;1.73;;
62915;SDS011;49010;51.230;-2.306;2022-11-15T18:06:17;4.70;;;1.38;;
62915;SDS011;49010;51.230;-2.306;2022-11-15T18:10:00;8.85;;;2.35;;
62915;SDS011;49010;51.230;-2.306;2022-11-15T18:13:43;6.53;;;1.85;;
62915;SDS011;49010;51.230;-2.306;2022-11-15T18:17:32;3.83;;;1.60;;
62915;SDS011;49010;51.230;-2.306;2022-11-15T18:21:18;5.93;;;1.30;;
62915;SDS011;49010;51.230;-2.306;2022-11-15T18:25:02;7.32;;;1.13;;
62915;SDS011;49010;51.230;-2.306;2022-11-15T18:28:45;6.05;;;0.90;;
62915;SDS011;49010;51.230;-2.306;2022-11-15T18:32:28;5.10;;;0.82;;
62915;SDS011;49010;51.230;-2.306;2022-11-15T18:36:12;6.07;;;1.73;;
62915;SDS011;49010;51.230;-2.306;2022-11-15T18:39:55;4.43;;;0.90;;
62915;SDS011;49010;51.230;-2.306;2022-11-15T18:43:38;5.65;;;1.00;;
62915;SDS011;49010;51.230;-2.306;2022-11-15T18:47:20;5.85;;;1.05;;
62915;SDS011;49010;51.230;-2.306;2022-11-15T18:51:02;4.53;;;0.95;;
62915;SDS011;49010;51.230;-2.306;2022-11-15T18:54:45;3.40;;;0.93;;
62915;SDS011;49010;51.230;-2.306;2022-11-15T18:58:31;4.32;;;1.13;;
62915;SDS011;49010;51.230;-2.306;2022-11-15T19:02:15;7.65;;;1.20;;
62915;SDS011;49010;51.230;-2.306;2022-11-15T19:06:01;6.55;;;1.13;;
62915;SDS011;49010;51.230;-2.306;2022-11-15T19:09:47;5.55;;;1.33;;
62915;SDS011;49010;51.230;-2.306;2022-11-15T19:13:29;5.80;;;1.48;;
62915;SDS011;49010;51.230;-2.306;2022-11-15T19:17:11;8.70;;;1.70;;
62915;SDS011;49010;51.230;-2.306;2022-11-15T19:20:53;3.92;;;1.42;;
62915;SDS011;49010;51.230;-2.306;2022-11-15T19:24:36;4.05;;;1.08;;
62915;SDS011;49010;51.230;-2.306;2022-11-15T19:28:18;6.63;;;1.23;;
62915;SDS011;49010;51.230;-2.306;2022-11-15T19:32:00;3.15;;;1.15;;
62915;SDS011;49010;51.230;-2.306;2022-11-15T19:35:43;4.22;;;1.20;;
62915;SDS011;49010;51.230;-2.306;2022-11-15T19:39:25;6.22;;;1.35;;
62915;SDS011;49010;51.230;-2.306;2022-11-15T19:43:07;2.78;;;0.70;;
62915;SDS011;49010;51.230;-2.306;2022-11-15T19:46:50;3.00;;;1.17;;
62915;SDS011;49010;51.230;-2.306;2022-11-15T19:50:32;3.35;;;1.10;;
62915;SDS011;49010;51.230;-2.306;2022-11-15T19:54:14;6.70;;;1.35;;
62915;SDS011;49010;51.230;-2.306;2022-11-15T19:57:57;4.03;;;1.25;;
62915;SDS011;49010;51.230;-2.306;2022-11-15T20:01:39;5.45;;;1.40;;
62915;SDS011;49010;51.230;-2.306;2022-11-15T20:05:22;5.85;;;1.83;;
62915;SDS011;49010;51.230;-2.306;2022-11-15T20:09:04;7.50;;;1.45;;
62915;SDS011;49010;51.230;-2.306;2022-11-15T20:12:46;7.03;;;1.55;;
62915;SDS011;49010;51.230;-2.306;2022-11-15T20:16:28;9.13;;;1.60;;
62915;SDS011;49010;51.230;-2.306;2022-11-15T20:20:10;5.88;;;1.45;;
62915;SDS011;49010;51.230;-2.306;2022-11-15T20:23:52;7.95;;;1.55;;
62915;SDS011;49010;51.230;-2.306;2022-11-15T20:27:35;10.13;;;2.85;;
62915;SDS011;49010;51.230;-2.306;2022-11-15T20:31:17;7.10;;;1.58;;
62915;SDS011;49010;51.230;-2.306;2022-11-15T20:34:59;3.70;;;1.50;;
62915;SDS011;49010;51.230;-2.306;2022-11-15T20:38:41;8.60;;;1.85;;
62915;SDS011;49010;51.230;-2.306;2022-11-15T20:42:24;3.60;;;1.50;;
62915;SDS011;49010;51.230;-2.306;2022-11-15T20:46:05;8.93;;;2.33;;
62915;SDS011;49010;51.230;-2.306;2022-11-15T20:49:47;8.60;;;2.10;;
62915;SDS011;49010;51.230;-2.306;2022-11-15T20:53:29;6.57;;;1.92;;
62915;SDS011;49010;51.230;-2.306;2022-11-15T20:57:12;13.35;;;1.90;;
62915;SDS011;49010;51.230;-2.306;2022-11-15T21:00:54;6.07;;;1.42;;
62915;SDS011;49010;51.230;-2.306;2022-11-15T21:04:36;7.82;;;1.63;;
62915;SDS011;49010;51.230;-2.306;2022-11-15T21:08:18;8.20;;;1.55;;
62915;SDS011;49010;51.230;-2.306;2022-11-15T21:12:00;5.45;;;1.35;;
62915;SDS011;49010;51.230;-2.306;2022-11-15T21:15:53;4.95;;;1.35;;
62915;SDS011;49010;51.230;-2.306;2022-11-15T21:19:36;9.32;;;2.30;;
62915;SDS011;49010;51.230;-2.306;2022-11-15T21:23:18;7.30;;;2.10;;
62915;SDS011;49010;51.230;-2.306;2022-11-15T21:27:01;5.43;;;1.90;;
62915;SDS011;49010;51.230;-2.306;2022-11-15T21:30:52;6.18;;;1.48;;
62915;SDS011;49010;51.230;-2.306;2022-11-15T21:38:22;7.07;;;2.47;;
62915;SDS011;49010;51.230;-2.306;2022-11-15T21:42:04;8.68;;;2.63;;
62915;SDS011;49010;51.230;-2.306;2022-11-15T21:46:00;5.10;;;2.50;;
62915;SDS011;49010;51.230;-2.306;2022-11-15T21:49:44;7.68;;;2.40;;
62915;SDS011;49010;51.230;-2.306;2022-11-15T21:53:26;13.10;;;3.22;;
62915;SDS011;49010;51.230;-2.306;2022-11-15T21:57:09;7.07;;;1.90;;
62915;SDS011;49010;51.230;-2.306;2022-11-15T22:00:52;7.53;;;3.38;;
62915;SDS011;49010;51.230;-2.306;2022-11-15T22:04:53;8.48;;;2.33;;
62915;SDS011;49010;51.230;-2.306;2022-11-15T22:08:35;6.35;;;1.92;;
62915;SDS011;49010;51.230;-2.306;2022-11-15T22:12:17;7.38;;;2.50;;
62915;SDS011;49010;51.230;-2.306;2022-11-15T22:15:59;6.25;;;2.83;;
62915;SDS011;49010;51.230;-2.306;2022-11-15T22:19:41;11.48;;;2.30;;
62915;SDS011;49010;51.230;-2.306;2022-11-15T22:23:33;11.57;;;2.20;;
62915;SDS011;49010;51.230;-2.306;2022-11-15T22:27:15;8.45;;;1.92;;
62915;SDS011;49010;51.230;-2.306;2022-11-15T22:30:58;7.95;;;1.67;;
62915;SDS011;49010;51.230;-2.306;2022-11-15T22:34:40;10.90;;;2.08;;
62915;SDS011;49010;51.230;-2.306;2022-11-15T22:38:22;9.75;;;1.70;;
62915;SDS011;49010;51.230;-2.306;2022-11-15T22:42:05;11.27;;;1.85;;
62915;SDS011;49010;51.230;-2.306;2022-11-15T22:49:33;14.00;;;2.30;;
62915;SDS011;49010;51.230;-2.306;2022-11-15T22:53:16;11.20;;;2.63;;
62915;SDS011;49010;51.230;-2.306;2022-11-15T22:56:59;10.90;;;2.42;;
62915;SDS011;49010;51.230;-2.306;2022-11-15T23:00:41;10.07;;;2.00;;
62915;SDS011;49010;51.230;-2.306;2022-11-15T23:04:23;12.15;;;2.67;;
62915;SDS011;49010;51.230;-2.306;2022-11-15T23:08:07;9.80;;;1.90;;
62915;SDS011;49010;51.230;-2.306;2022-11-15T23:11:49;6.82;;;2.03;;
62915;SDS011;49010;51.230;-2.306;2022-11-15T23:16:07;10.10;;;2.15;;
62915;SDS011;49010;51.230;-2.306;2022-11-15T23:20:02;7.57;;;1.92;;
62915;SDS011;49010;51.230;-2.306;2022-11-15T23:24:05;8.10;;;1.67;;
62915;SDS011;49010;51.230;-2.306;2022-11-15T23:27:47;11.38;;;1.58;;
62915;SDS011;49010;51.230;-2.306;2022-11-15T23:31:29;9.55;;;1.40;;
62915;SDS011;49010;51.230;-2.306;2022-11-15T23:35:41;9.77;;;1.63;;
62915;SDS011;49010;51.230;-2.306;2022-11-15T23:39:33;7.95;;;1.70;;
62915;SDS011;49010;51.230;-2.306;2022-11-15T23:43:15;6.57;;;0.98;;
62915;SDS011;49010;51.230;-2.306;2022-11-15T23:46:57;8.10;;;1.50;;
62915;SDS011;49010;51.230;-2.306;2022-11-15T23:50:38;6.80;;;1.30;;
62915;SDS011;49010;51.230;-2.306;2022-11-15T23:54:20;6.88;;;0.93;;
62915;SDS011;49010;51.230;-2.306;2022-11-15T23:58:02;6.95;;;1.23;;
